sensor_id;sensor_type;location;lat;lon;timestamp;temperature;humidity
20335;DHT22;10325;51.468;5.804;2023-02-01T00:01:20;15.80;59.10
20335;DHT22;10325;51.468;5.804;2023-02-01T00:03:48;15.80;59.10
20335;DHT22;10325;51.468;5.804;2023-02-01T00:06:18;15.80;59.20
20335;DHT22;10325;51.468;5.804;2023-02-01T00:08:54;15.80;59.20
20335;DHT22;10325;51.468;5.804;2023-02-01T00:11:27;15.80;59.20
20335;DHT22;10325;51.468;5.804;2023-02-01T00:14:01;15.80;59.20
20335;DHT22;10325;51.468;5.804;2023-02-01T00:16:31;15.80;59.90
20335;DHT22;10325;51.468;5.804;2023-02-01T00:19:22;15.80;59.30
20335;DHT22;10325;51.468;5.804;2023-02-01T00:21:52;15.80;59.30
20335;DHT22;10325;51.468;5.804;2023-02-01T00:24:22;15.80;59.30
20335;DHT22;10325;51.468;5.804;2023-02-01T00:26:51;15.80;59.30
20335;DHT22;10325;51.468;5.804;2023-02-01T00:29:23;15.80;59.40
20335;DHT22;10325;51.468;5.804;2023-02-01T00:31:55;15.80;59.30
20335;DHT22;10325;51.468;5.804;2023-02-01T00:34:24;15.80;59.30
20335;DHT22;10325;51.468;5.804;2023-02-01T00:36:51;15.70;59.30
20335;DHT22;10325;51.468;5.804;2023-02-01T00:39:21;15.80;59.30
20335;DHT22;10325;51.468;5.804;2023-02-01T00:41:51;15.80;59.40
20335;DHT22;10325;51.468;5.804;2023-02-01T00:44:19;15.80;59.30
20335;DHT22;10325;51.468;5.804;2023-02-01T00:46:50;15.80;59.40
20335;DHT22;10325;51.468;5.804;2023-02-01T00:49:22;15.70;59.40
20335;DHT22;10325;51.468;5.804;2023-02-01T00:51:51;15.70;59.30
20335;DHT22;10325;51.468;5.804;2023-02-01T00:54:22;15.70;59.30
20335;DHT22;10325;51.468;5.804;2023-02-01T00:56:51;15.80;59.40
20335;DHT22;10325;51.468;5.804;2023-02-01T00:59:22;15.80;59.40
20335;DHT22;10325;51.468;5.804;2023-02-01T01:01:52;15.80;59.50
20335;DHT22;10325;51.468;5.804;2023-02-01T01:04:23;15.70;59.40
20335;DHT22;10325;51.468;5.804;2023-02-01T01:06:53;15.70;59.40
20335;DHT22;10325;51.468;5.804;2023-02-01T01:09:24;15.70;59.40
20335;DHT22;10325;51.468;5.804;2023-02-01T01:11:53;15.70;59.50
20335;DHT22;10325;51.468;5.804;2023-02-01T01:14:24;15.70;59.50
20335;DHT22;10325;51.468;5.804;2023-02-01T01:16:52;15.70;59.50
20335;DHT22;10325;51.468;5.804;2023-02-01T01:19:23;15.70;59.50
20335;DHT22;10325;51.468;5.804;2023-02-01T01:21:55;15.70;59.50
20335;DHT22;10325;51.468;5.804;2023-02-01T01:24:26;15.70;59.50
20335;DHT22;10325;51.468;5.804;2023-02-01T01:26:57;15.70;59.60
20335;DHT22;10325;51.468;5.804;2023-02-01T01:29:27;15.70;59.50
20335;DHT22;10325;51.468;5.804;2023-02-01T01:31:57;15.70;59.60
20335;DHT22;10325;51.468;5.804;2023-02-01T01:34:27;15.70;59.60
20335;DHT22;10325;51.468;5.804;2023-02-01T01:37:10;15.70;59.60
20335;DHT22;10325;51.468;5.804;2023-02-01T01:39:41;15.70;59.70
20335;DHT22;10325;51.468;5.804;2023-02-01T01:42:12;15.70;59.70
20335;DHT22;10325;51.468;5.804;2023-02-01T01:47:45;15.70;59.70
20335;DHT22;10325;51.468;5.804;2023-02-01T01:50:21;15.60;59.80
20335;DHT22;10325;51.468;5.804;2023-02-01T01:52:54;15.60;59.80
20335;DHT22;10325;51.468;5.804;2023-02-01T01:55:28;15.60;59.80
20335;DHT22;10325;51.468;5.804;2023-02-01T01:58:10;15.60;59.80
20335;DHT22;10325;51.468;5.804;2023-02-01T02:00:47;15.60;59.90
20335;DHT22;10325;51.468;5.804;2023-02-01T02:03:29;15.60;59.80
20335;DHT22;10325;51.468;5.804;2023-02-01T02:06:17;15.60;59.80
20335;DHT22;10325;51.468;5.804;2023-02-01T02:08:49;15.60;59.80
20335;DHT22;10325;51.468;5.804;2023-02-01T02:11:22;15.60;59.80
20335;DHT22;10325;51.468;5.804;2023-02-01T02:13:55;15.60;59.90
20335;DHT22;10325;51.468;5.804;2023-02-01T02:23:03;15.60;59.90
20335;DHT22;10325;51.468;5.804;2023-02-01T02:32:17;15.50;60.00
20335;DHT22;10325;51.468;5.804;2023-02-01T02:41:27;15.50;60.00
20335;DHT22;10325;51.468;5.804;2023-02-01T02:48:23;15.50;60.10
20335;DHT22;10325;51.468;5.804;2023-02-01T02:54:51;15.50;60.10
20335;DHT22;10325;51.468;5.804;2023-02-01T02:57:40;15.50;60.20
20335;DHT22;10325;51.468;5.804;2023-02-01T03:00:39;15.50;60.80
20335;DHT22;10325;51.468;5.804;2023-02-01T03:03:27;15.50;60.10
20335;DHT22;10325;51.468;5.804;2023-02-01T03:06:17;15.50;60.10
20335;DHT22;10325;51.468;5.804;2023-02-01T03:08:53;15.50;60.10
20335;DHT22;10325;51.468;5.804;2023-02-01T03:11:26;15.50;60.20
20335;DHT22;10325;51.468;5.804;2023-02-01T03:14:23;15.50;60.10
20335;DHT22;10325;51.468;5.804;2023-02-01T03:17:14;15.50;60.10
20335;DHT22;10325;51.468;5.804;2023-02-01T03:19:47;15.50;60.20
20335;DHT22;10325;51.468;5.804;2023-02-01T03:22:22;15.40;60.20
20335;DHT22;10325;51.468;5.804;2023-02-01T03:24:55;15.50;60.20
20335;DHT22;10325;51.468;5.804;2023-02-01T03:27:33;15.50;60.20
20335;DHT22;10325;51.468;5.804;2023-02-01T03:32:45;15.40;60.10
20335;DHT22;10325;51.468;5.804;2023-02-01T03:35:32;15.50;60.20
20335;DHT22;10325;51.468;5.804;2023-02-01T03:41:17;15.40;60.20
20335;DHT22;10325;51.468;5.804;2023-02-01T03:44:16;15.40;60.10
20335;DHT22;10325;51.468;5.804;2023-02-01T03:55:32;15.40;60.30
20335;DHT22;10325;51.468;5.804;2023-02-01T03:58:15;15.40;60.30
20335;DHT22;10325;51.468;5.804;2023-02-01T04:00:52;15.40;60.30
20335;DHT22;10325;51.468;5.804;2023-02-01T04:03:26;15.40;60.30
20335;DHT22;10325;51.468;5.804;2023-02-01T04:05:54;15.40;60.30
20335;DHT22;10325;51.468;5.804;2023-02-01T04:08:26;15.40;60.30
20335;DHT22;10325;51.468;5.804;2023-02-01T04:10:56;15.30;60.30
20335;DHT22;10325;51.468;5.804;2023-02-01T04:13:29;15.40;60.30
20335;DHT22;10325;51.468;5.804;2023-02-01T04:16:00;15.40;60.30
20335;DHT22;10325;51.468;5.804;2023-02-01T04:18:30;15.40;60.30
20335;DHT22;10325;51.468;5.804;2023-02-01T04:20:59;15.40;60.30
20335;DHT22;10325;51.468;5.804;2023-02-01T04:23:33;15.40;60.40
20335;DHT22;10325;51.468;5.804;2023-02-01T04:26:04;15.40;60.40
20335;DHT22;10325;51.468;5.804;2023-02-01T04:28:37;15.40;60.30
20335;DHT22;10325;51.468;5.804;2023-02-01T04:31:08;15.40;60.30
20335;DHT22;10325;51.468;5.804;2023-02-01T04:33:37;15.40;60.40
20335;DHT22;10325;51.468;5.804;2023-02-01T04:36:12;15.40;60.30
20335;DHT22;10325;51.468;5.804;2023-02-01T04:38:40;15.40;60.40
20335;DHT22;10325;51.468;5.804;2023-02-01T04:41:08;15.40;60.40
20335;DHT22;10325;51.468;5.804;2023-02-01T04:43:51;15.40;60.50
20335;DHT22;10325;51.468;5.804;2023-02-01T04:46:23;15.30;60.40
20335;DHT22;10325;51.468;5.804;2023-02-01T04:48:56;15.40;60.50
20335;DHT22;10325;51.468;5.804;2023-02-01T04:51:27;15.40;60.50
20335;DHT22;10325;51.468;5.804;2023-02-01T04:53:57;15.40;60.50
20335;DHT22;10325;51.468;5.804;2023-02-01T04:56:30;15.40;60.60
20335;DHT22;10325;51.468;5.804;2023-02-01T04:58:58;15.30;60.50
20335;DHT22;10325;51.468;5.804;2023-02-01T05:01:32;15.30;60.50
20335;DHT22;10325;51.468;5.804;2023-02-01T05:04:00;15.40;60.50
20335;DHT22;10325;51.468;5.804;2023-02-01T05:06:32;15.40;60.60
20335;DHT22;10325;51.468;5.804;2023-02-01T05:09:04;15.40;60.50
20335;DHT22;10325;51.468;5.804;2023-02-01T05:11:35;15.40;60.60
20335;DHT22;10325;51.468;5.804;2023-02-01T05:14:25;15.30;60.50
20335;DHT22;10325;51.468;5.804;2023-02-01T05:16:57;15.30;60.60
20335;DHT22;10325;51.468;5.804;2023-02-01T05:19:29;15.30;60.60
20335;DHT22;10325;51.468;5.804;2023-02-01T05:22:00;15.30;60.60
20335;DHT22;10325;51.468;5.804;2023-02-01T05:24:31;15.30;60.60
20335;DHT22;10325;51.468;5.804;2023-02-01T05:27:02;15.30;60.60
20335;DHT22;10325;51.468;5.804;2023-02-01T05:29:32;15.30;60.60
20335;DHT22;10325;51.468;5.804;2023-02-01T05:32:03;15.30;60.60
20335;DHT22;10325;51.468;5.804;2023-02-01T05:34:49;15.30;60.60
20335;DHT22;10325;51.468;5.804;2023-02-01T05:37:18;15.30;60.60
20335;DHT22;10325;51.468;5.804;2023-02-01T05:39:49;15.30;60.60
20335;DHT22;10325;51.468;5.804;2023-02-01T05:42:19;15.30;60.60
20335;DHT22;10325;51.468;5.804;2023-02-01T05:44:46;15.30;60.60
20335;DHT22;10325;51.468;5.804;2023-02-01T05:47:18;15.30;60.60
20335;DHT22;10325;51.468;5.804;2023-02-01T05:49:57;15.30;60.60
20335;DHT22;10325;51.468;5.804;2023-02-01T05:52:27;15.30;60.60
20335;DHT22;10325;51.468;5.804;2023-02-01T05:54:59;15.30;60.60
20335;DHT22;10325;51.468;5.804;2023-02-01T05:57:29;15.20;60.50
20335;DHT22;10325;51.468;5.804;2023-02-01T06:00:03;15.30;60.60
20335;DHT22;10325;51.468;5.804;2023-02-01T06:02:35;15.30;60.50
20335;DHT22;10325;51.468;5.804;2023-02-01T06:05:07;15.30;60.40
20335;DHT22;10325;51.468;5.804;2023-02-01T06:07:37;15.20;60.40
20335;DHT22;10325;51.468;5.804;2023-02-01T06:10:19;15.20;60.40
20335;DHT22;10325;51.468;5.804;2023-02-01T06:12:52;15.30;60.40
20335;DHT22;10325;51.468;5.804;2023-02-01T06:15:21;15.20;60.40
20335;DHT22;10325;51.468;5.804;2023-02-01T06:17:52;15.20;60.40
20335;DHT22;10325;51.468;5.804;2023-02-01T06:20:21;15.30;60.40
20335;DHT22;10325;51.468;5.804;2023-02-01T06:22:50;15.20;60.30
20335;DHT22;10325;51.468;5.804;2023-02-01T06:25:21;15.20;60.20
20335;DHT22;10325;51.468;5.804;2023-02-01T06:28:03;15.20;60.20
20335;DHT22;10325;51.468;5.804;2023-02-01T06:30:47;15.20;60.20
20335;DHT22;10325;51.468;5.804;2023-02-01T06:33:18;15.20;60.20
20335;DHT22;10325;51.468;5.804;2023-02-01T06:35:49;15.20;60.20
20335;DHT22;10325;51.468;5.804;2023-02-01T06:38:20;15.20;60.20
20335;DHT22;10325;51.468;5.804;2023-02-01T06:40:56;15.20;60.10
20335;DHT22;10325;51.468;5.804;2023-02-01T06:43:27;15.20;60.10
20335;DHT22;10325;51.468;5.804;2023-02-01T06:46:04;15.20;60.50
20335;DHT22;10325;51.468;5.804;2023-02-01T06:48:35;15.20;59.90
20335;DHT22;10325;51.468;5.804;2023-02-01T06:51:28;15.20;59.80
20335;DHT22;10325;51.468;5.804;2023-02-01T06:54:01;15.30;59.80
20335;DHT22;10325;51.468;5.804;2023-02-01T06:56:33;15.20;60.00
20335;DHT22;10325;51.468;5.804;2023-02-01T06:59:14;15.20;59.80
20335;DHT22;10325;51.468;5.804;2023-02-01T07:01:47;15.20;59.90
20335;DHT22;10325;51.468;5.804;2023-02-01T07:04:17;15.20;59.80
20335;DHT22;10325;51.468;5.804;2023-02-01T07:06:49;15.20;59.80
20335;DHT22;10325;51.468;5.804;2023-02-01T07:09:19;15.20;59.70
20335;DHT22;10325;51.468;5.804;2023-02-01T07:12:03;15.20;59.70
20335;DHT22;10325;51.468;5.804;2023-02-01T07:14:35;15.20;59.70
20335;DHT22;10325;51.468;5.804;2023-02-01T07:17:10;15.30;59.70
20335;DHT22;10325;51.468;5.804;2023-02-01T07:19:44;15.20;59.70
20335;DHT22;10325;51.468;5.804;2023-02-01T07:22:16;15.20;59.90
20335;DHT22;10325;51.468;5.804;2023-02-01T07:24:42;15.30;60.20
20335;DHT22;10325;51.468;5.804;2023-02-01T07:27:13;15.50;60.20
20335;DHT22;10325;51.468;5.804;2023-02-01T07:29:46;15.80;59.80
20335;DHT22;10325;51.468;5.804;2023-02-01T07:32:14;16.00;59.30
20335;DHT22;10325;51.468;5.804;2023-02-01T07:34:46;16.20;58.80
20335;DHT22;10325;51.468;5.804;2023-02-01T07:37:16;16.40;58.40
20335;DHT22;10325;51.468;5.804;2023-02-01T07:39:46;16.60;57.90
20335;DHT22;10325;51.468;5.804;2023-02-01T07:42:16;16.90;57.50
20335;DHT22;10325;51.468;5.804;2023-02-01T07:44:46;17.00;57.10
20335;DHT22;10325;51.468;5.804;2023-02-01T07:47:13;17.20;56.60
20335;DHT22;10325;51.468;5.804;2023-02-01T07:49:48;17.30;56.20
20335;DHT22;10325;51.468;5.804;2023-02-01T07:52:18;17.50;55.80
20335;DHT22;10325;51.468;5.804;2023-02-01T07:54:50;17.60;55.50
20335;DHT22;10325;51.468;5.804;2023-02-01T07:57:24;17.80;55.30
20335;DHT22;10325;51.468;5.804;2023-02-01T07:59:59;17.90;54.90
20335;DHT22;10325;51.468;5.804;2023-02-01T08:02:58;18.00;54.60
20335;DHT22;10325;51.468;5.804;2023-02-01T08:05:32;18.20;54.40
20335;DHT22;10325;51.468;5.804;2023-02-01T08:08:02;18.30;54.20
20335;DHT22;10325;51.468;5.804;2023-02-01T08:10:33;18.40;54.10
20335;DHT22;10325;51.468;5.804;2023-02-01T08:13:08;18.50;53.70
20335;DHT22;10325;51.468;5.804;2023-02-01T08:15:39;18.60;53.40
20335;DHT22;10325;51.468;5.804;2023-02-01T08:18:10;18.70;53.20
20335;DHT22;10325;51.468;5.804;2023-02-01T08:20:39;18.80;52.90
20335;DHT22;10325;51.468;5.804;2023-02-01T08:23:17;18.90;52.60
20335;DHT22;10325;51.468;5.804;2023-02-01T08:25:48;19.00;52.40
20335;DHT22;10325;51.468;5.804;2023-02-01T08:28:19;19.10;52.30
20335;DHT22;10325;51.468;5.804;2023-02-01T08:30:48;19.20;52.00
20335;DHT22;10325;51.468;5.804;2023-02-01T08:33:18;19.30;51.80
20335;DHT22;10325;51.468;5.804;2023-02-01T08:35:46;19.30;51.50
20335;DHT22;10325;51.468;5.804;2023-02-01T08:38:17;19.40;51.30
20335;DHT22;10325;51.468;5.804;2023-02-01T08:40:48;19.40;51.20
20335;DHT22;10325;51.468;5.804;2023-02-01T08:43:20;19.70;51.50
20335;DHT22;10325;51.468;5.804;2023-02-01T08:45:53;20.10;51.20
20335;DHT22;10325;51.468;5.804;2023-02-01T08:48:25;20.40;50.50
20335;DHT22;10325;51.468;5.804;2023-02-01T08:51:01;20.70;50.10
20335;DHT22;10325;51.468;5.804;2023-02-01T08:53:31;20.90;49.70
20335;DHT22;10325;51.468;5.804;2023-02-01T08:56:00;21.10;49.40
20335;DHT22;10325;51.468;5.804;2023-02-01T08:58:30;21.20;49.00
20335;DHT22;10325;51.468;5.804;2023-02-01T09:01:12;21.40;48.80
20335;DHT22;10325;51.468;5.804;2023-02-01T09:03:42;21.60;48.60
20335;DHT22;10325;51.468;5.804;2023-02-01T09:06:13;21.80;48.20
20335;DHT22;10325;51.468;5.804;2023-02-01T09:08:42;21.90;47.90
20335;DHT22;10325;51.468;5.804;2023-02-01T09:11:16;22.10;47.60
20335;DHT22;10325;51.468;5.804;2023-02-01T09:13:48;22.30;47.30
20335;DHT22;10325;51.468;5.804;2023-02-01T09:16:19;22.40;47.00
20335;DHT22;10325;51.468;5.804;2023-02-01T09:18:51;22.50;46.90
20335;DHT22;10325;51.468;5.804;2023-02-01T09:21:34;22.60;46.70
20335;DHT22;10325;51.468;5.804;2023-02-01T09:24:05;22.80;46.60
20335;DHT22;10325;51.468;5.804;2023-02-01T09:26:52;22.80;46.20
20335;DHT22;10325;51.468;5.804;2023-02-01T09:29:25;22.90;46.20
20335;DHT22;10325;51.468;5.804;2023-02-01T09:31:56;23.00;46.10
20335;DHT22;10325;51.468;5.804;2023-02-01T09:34:32;23.10;46.20
20335;DHT22;10325;51.468;5.804;2023-02-01T09:37:07;23.20;46.10
20335;DHT22;10325;51.468;5.804;2023-02-01T09:39:38;23.30;45.90
20335;DHT22;10325;51.468;5.804;2023-02-01T09:45:51;23.40;45.80
20335;DHT22;10325;51.468;5.804;2023-02-01T09:48:31;23.50;45.70
20335;DHT22;10325;51.468;5.804;2023-02-01T09:51:16;23.50;45.50
20335;DHT22;10325;51.468;5.804;2023-02-01T09:59:46;23.70;45.40
20335;DHT22;10325;51.468;5.804;2023-02-01T10:02:23;23.80;45.30
20335;DHT22;10325;51.468;5.804;2023-02-01T10:04:57;24.00;45.00
20335;DHT22;10325;51.468;5.804;2023-02-01T10:10:36;24.10;44.90
20335;DHT22;10325;51.468;5.804;2023-02-01T10:13:40;24.20;44.60
20335;DHT22;10325;51.468;5.804;2023-02-01T10:16:37;24.30;44.60
20335;DHT22;10325;51.468;5.804;2023-02-01T10:19:47;24.40;44.60
20335;DHT22;10325;51.468;5.804;2023-02-01T10:23:26;24.40;44.60
20335;DHT22;10325;51.468;5.804;2023-02-01T10:26:12;24.50;44.60
20335;DHT22;10325;51.468;5.804;2023-02-01T10:28:51;24.60;44.70
20335;DHT22;10325;51.468;5.804;2023-02-01T10:31:26;24.70;44.30
20335;DHT22;10325;51.468;5.804;2023-02-01T10:34:07;24.70;44.80
20335;DHT22;10325;51.468;5.804;2023-02-01T10:37:31;24.80;44.20
20335;DHT22;10325;51.468;5.804;2023-02-01T10:39:36;24.80;43.90
20335;DHT22;10325;51.468;5.804;2023-02-01T10:42:09;24.80;44.00
20335;DHT22;10325;51.468;5.804;2023-02-01T10:44:45;24.80;43.90
20335;DHT22;10325;51.468;5.804;2023-02-01T10:47:19;24.60;44.30
20335;DHT22;10325;51.468;5.804;2023-02-01T10:50:10;24.20;43.90
20335;DHT22;10325;51.468;5.804;2023-02-01T10:53:21;24.00;44.90
20335;DHT22;10325;51.468;5.804;2023-02-01T10:55:55;23.60;45.20
20335;DHT22;10325;51.468;5.804;2023-02-01T10:58:35;23.30;45.40
20335;DHT22;10325;51.468;5.804;2023-02-01T11:01:19;23.10;45.80
20335;DHT22;10325;51.468;5.804;2023-02-01T11:04:09;22.90;45.70
20335;DHT22;10325;51.468;5.804;2023-02-01T11:06:43;22.70;46.20
20335;DHT22;10325;51.468;5.804;2023-02-01T11:09:25;22.50;46.40
20335;DHT22;10325;51.468;5.804;2023-02-01T11:11:59;22.30;46.60
20335;DHT22;10325;51.468;5.804;2023-02-01T11:14:40;22.10;46.90
20335;DHT22;10325;51.468;5.804;2023-02-01T11:20:16;21.80;47.30
20335;DHT22;10325;51.468;5.804;2023-02-01T11:23:17;21.70;47.60
20335;DHT22;10325;51.468;5.804;2023-02-01T11:26:12;21.60;48.20
20335;DHT22;10325;51.468;5.804;2023-02-01T11:28:52;21.40;48.30
20335;DHT22;10325;51.468;5.804;2023-02-01T11:31:23;21.20;48.40
20335;DHT22;10325;51.468;5.804;2023-02-01T11:34:11;21.00;48.90
20335;DHT22;10325;51.468;5.804;2023-02-01T11:36:50;20.90;48.80
20335;DHT22;10325;51.468;5.804;2023-02-01T11:42:15;20.80;48.20
20335;DHT22;10325;51.468;5.804;2023-02-01T11:44:49;20.70;49.10
20335;DHT22;10325;51.468;5.804;2023-02-01T11:47:39;20.60;49.70
20335;DHT22;10325;51.468;5.804;2023-02-01T11:50:30;20.60;50.00
20335;DHT22;10325;51.468;5.804;2023-02-01T11:56:17;20.50;50.60
20335;DHT22;10325;51.468;5.804;2023-02-01T11:59:07;20.40;50.90
20335;DHT22;10325;51.468;5.804;2023-02-01T12:13:46;20.30;51.30
20335;DHT22;10325;51.468;5.804;2023-02-01T12:16:54;20.30;51.50
20335;DHT22;10325;51.468;5.804;2023-02-01T12:19:52;20.20;51.50
20335;DHT22;10325;51.468;5.804;2023-02-01T12:34:45;20.10;51.80
20335;DHT22;10325;51.468;5.804;2023-02-01T12:53:17;19.50;52.90
20335;DHT22;10325;51.468;5.804;2023-02-01T12:55:58;19.40;53.10
20335;DHT22;10325;51.468;5.804;2023-02-01T12:58:43;19.50;53.60
20335;DHT22;10325;51.468;5.804;2023-02-01T13:01:26;19.50;53.40
20335;DHT22;10325;51.468;5.804;2023-02-01T13:04:17;19.50;53.30
20335;DHT22;10325;51.468;5.804;2023-02-01T13:07:09;19.60;52.90
20335;DHT22;10325;51.468;5.804;2023-02-01T13:09:54;19.50;53.20
20335;DHT22;10325;51.468;5.804;2023-02-01T13:12:49;19.50;53.40
20335;DHT22;10325;51.468;5.804;2023-02-01T13:15:33;19.60;53.40
20335;DHT22;10325;51.468;5.804;2023-02-01T13:18:05;19.60;53.30
20335;DHT22;10325;51.468;5.804;2023-02-01T13:20:46;19.60;53.30
20335;DHT22;10325;51.468;5.804;2023-02-01T13:23:33;19.60;53.30
20335;DHT22;10325;51.468;5.804;2023-02-01T13:26:03;19.60;53.40
20335;DHT22;10325;51.468;5.804;2023-02-01T13:40:49;19.60;53.30
20335;DHT22;10325;51.468;5.804;2023-02-01T13:43:27;19.60;52.90
20335;DHT22;10325;51.468;5.804;2023-02-01T13:46:06;19.50;52.00
20335;DHT22;10325;51.468;5.804;2023-02-01T13:48:56;19.50;52.50
20335;DHT22;10325;51.468;5.804;2023-02-01T13:51:43;19.50;52.80
20335;DHT22;10325;51.468;5.804;2023-02-01T13:54:41;19.40;52.20
20335;DHT22;10325;51.468;5.804;2023-02-01T13:57:38;19.40;52.50
20335;DHT22;10325;51.468;5.804;2023-02-01T14:00:34;19.30;52.60
20335;DHT22;10325;51.468;5.804;2023-02-01T14:03:12;19.30;52.70
20335;DHT22;10325;51.468;5.804;2023-02-01T14:09:36;19.30;53.70
20335;DHT22;10325;51.468;5.804;2023-02-01T14:11:55;19.30;53.20
20335;DHT22;10325;51.468;5.804;2023-02-01T14:14:38;19.30;53.10
20335;DHT22;10325;51.468;5.804;2023-02-01T14:17:31;19.30;53.20
20335;DHT22;10325;51.468;5.804;2023-02-01T14:23:20;19.40;53.70
20335;DHT22;10325;51.468;5.804;2023-02-01T14:26:04;19.40;53.40
20335;DHT22;10325;51.468;5.804;2023-02-01T14:28:41;19.40;53.60
20335;DHT22;10325;51.468;5.804;2023-02-01T14:31:52;19.40;53.70
20335;DHT22;10325;51.468;5.804;2023-02-01T14:34:48;19.40;53.40
20335;DHT22;10325;51.468;5.804;2023-02-01T14:40:13;19.40;53.40
20335;DHT22;10325;51.468;5.804;2023-02-01T14:42:47;19.40;53.50
20335;DHT22;10325;51.468;5.804;2023-02-01T14:50:44;19.40;53.30
20335;DHT22;10325;51.468;5.804;2023-02-01T14:53:17;19.40;53.40
20335;DHT22;10325;51.468;5.804;2023-02-01T14:56:07;19.40;53.60
20335;DHT22;10325;51.468;5.804;2023-02-01T14:58:57;19.40;53.50
20335;DHT22;10325;51.468;5.804;2023-02-01T15:01:31;19.40;53.70
20335;DHT22;10325;51.468;5.804;2023-02-01T15:04:13;19.40;53.80
20335;DHT22;10325;51.468;5.804;2023-02-01T15:06:58;19.40;53.70
20335;DHT22;10325;51.468;5.804;2023-02-01T15:09:46;19.40;52.90
20335;DHT22;10325;51.468;5.804;2023-02-01T15:12:27;19.30;52.90
20335;DHT22;10325;51.468;5.804;2023-02-01T15:15:14;19.30;53.00
20335;DHT22;10325;51.468;5.804;2023-02-01T15:17:58;19.30;53.10
20335;DHT22;10325;51.468;5.804;2023-02-01T15:20:36;19.20;53.00
20335;DHT22;10325;51.468;5.804;2023-02-01T15:23:25;19.20;52.90
20335;DHT22;10325;51.468;5.804;2023-02-01T15:25:54;19.10;52.80
20335;DHT22;10325;51.468;5.804;2023-02-01T15:28:23;19.10;52.80
20335;DHT22;10325;51.468;5.804;2023-02-01T15:31:04;19.10;53.00
20335;DHT22;10325;51.468;5.804;2023-02-01T15:33:37;19.00;53.00
20335;DHT22;10325;51.468;5.804;2023-02-01T15:36:16;19.00;53.10
20335;DHT22;10325;51.468;5.804;2023-02-01T15:38:47;18.90;53.00
20335;DHT22;10325;51.468;5.804;2023-02-01T15:41:19;18.90;53.00
20335;DHT22;10325;51.468;5.804;2023-02-01T15:46:37;18.80;53.10
20335;DHT22;10325;51.468;5.804;2023-02-01T15:49:32;18.80;53.00
20335;DHT22;10325;51.468;5.804;2023-02-01T15:52:01;18.80;52.90
20335;DHT22;10325;51.468;5.804;2023-02-01T15:54:51;18.70;53.10
20335;DHT22;10325;51.468;5.804;2023-02-01T15:57:26;18.70;53.40
20335;DHT22;10325;51.468;5.804;2023-02-01T16:00:22;18.70;53.50
20335;DHT22;10325;51.468;5.804;2023-02-01T16:03:33;18.60;53.30
20335;DHT22;10325;51.468;5.804;2023-02-01T16:09:14;18.60;53.30
20335;DHT22;10325;51.468;5.804;2023-02-01T16:12:02;18.60;53.20
20335;DHT22;10325;51.468;5.804;2023-02-01T16:14:34;18.50;53.30
20335;DHT22;10325;51.468;5.804;2023-02-01T16:17:01;18.50;53.40
20335;DHT22;10325;51.468;5.804;2023-02-01T16:19:34;18.50;53.00
20335;DHT22;10325;51.468;5.804;2023-02-01T16:22:02;18.40;53.10
20335;DHT22;10325;51.468;5.804;2023-02-01T16:24:31;18.40;53.30
20335;DHT22;10325;51.468;5.804;2023-02-01T16:27:03;18.40;53.40
20335;DHT22;10325;51.468;5.804;2023-02-01T16:29:33;18.40;53.40
20335;DHT22;10325;51.468;5.804;2023-02-01T16:32:01;18.40;53.50
20335;DHT22;10325;51.468;5.804;2023-02-01T16:34:30;18.40;53.30
20335;DHT22;10325;51.468;5.804;2023-02-01T16:37:00;18.30;53.20
20335;DHT22;10325;51.468;5.804;2023-02-01T16:39:30;18.30;53.00
20335;DHT22;10325;51.468;5.804;2023-02-01T16:42:10;18.30;53.00
20335;DHT22;10325;51.468;5.804;2023-02-01T16:44:43;18.20;52.80
20335;DHT22;10325;51.468;5.804;2023-02-01T16:47:21;18.20;52.90
20335;DHT22;10325;51.468;5.804;2023-02-01T16:49:49;18.30;52.80
20335;DHT22;10325;51.468;5.804;2023-02-01T16:52:38;18.20;52.80
20335;DHT22;10325;51.468;5.804;2023-02-01T16:55:16;18.20;53.50
20335;DHT22;10325;51.468;5.804;2023-02-01T16:57:56;18.10;53.00
20335;DHT22;10325;51.468;5.804;2023-02-01T17:00:27;18.10;53.20
20335;DHT22;10325;51.468;5.804;2023-02-01T17:03:01;18.10;53.20
20335;DHT22;10325;51.468;5.804;2023-02-01T17:05:32;18.10;53.40
20335;DHT22;10325;51.468;5.804;2023-02-01T17:08:09;18.10;53.40
20335;DHT22;10325;51.468;5.804;2023-02-01T17:10:39;18.10;53.30
20335;DHT22;10325;51.468;5.804;2023-02-01T17:13:15;18.10;53.30
20335;DHT22;10325;51.468;5.804;2023-02-01T17:15:56;18.00;53.40
20335;DHT22;10325;51.468;5.804;2023-02-01T17:18:33;18.00;53.30
20335;DHT22;10325;51.468;5.804;2023-02-01T17:21:09;18.00;53.40
20335;DHT22;10325;51.468;5.804;2023-02-01T17:23:42;18.00;53.60
20335;DHT22;10325;51.468;5.804;2023-02-01T17:26:13;18.00;53.60
20335;DHT22;10325;51.468;5.804;2023-02-01T17:28:44;18.00;53.70
20335;DHT22;10325;51.468;5.804;2023-02-01T17:31:15;18.00;53.70
20335;DHT22;10325;51.468;5.804;2023-02-01T17:33:46;18.00;53.80
20335;DHT22;10325;51.468;5.804;2023-02-01T17:36:28;18.00;53.70
20335;DHT22;10325;51.468;5.804;2023-02-01T17:38:57;18.00;53.70
20335;DHT22;10325;51.468;5.804;2023-02-01T17:41:33;17.90;53.80
20335;DHT22;10325;51.468;5.804;2023-02-01T17:44:08;17.90;53.90
20335;DHT22;10325;51.468;5.804;2023-02-01T17:46:38;17.90;53.90
20335;DHT22;10325;51.468;5.804;2023-02-01T17:49:09;17.90;53.80
20335;DHT22;10325;51.468;5.804;2023-02-01T17:51:38;17.90;54.00
20335;DHT22;10325;51.468;5.804;2023-02-01T17:54:11;17.90;53.90
20335;DHT22;10325;51.468;5.804;2023-02-01T17:56:43;17.90;53.90
20335;DHT22;10325;51.468;5.804;2023-02-01T17:59:14;17.90;54.00
20335;DHT22;10325;51.468;5.804;2023-02-01T18:01:48;17.90;53.80
20335;DHT22;10325;51.468;5.804;2023-02-01T18:04:20;17.80;53.80
20335;DHT22;10325;51.468;5.804;2023-02-01T18:06:49;17.80;53.90
20335;DHT22;10325;51.468;5.804;2023-02-01T18:09:20;17.80;54.50
20335;DHT22;10325;51.468;5.804;2023-02-01T18:11:50;17.80;54.00
20335;DHT22;10325;51.468;5.804;2023-02-01T18:14:23;17.80;54.00
20335;DHT22;10325;51.468;5.804;2023-02-01T18:16:52;17.80;53.80
20335;DHT22;10325;51.468;5.804;2023-02-01T18:19:22;17.70;53.80
20335;DHT22;10325;51.468;5.804;2023-02-01T18:21:53;17.70;53.90
20335;DHT22;10325;51.468;5.804;2023-02-01T18:24:27;17.70;53.90
20335;DHT22;10325;51.468;5.804;2023-02-01T18:26:59;17.70;53.90
20335;DHT22;10325;51.468;5.804;2023-02-01T18:29:33;17.70;53.90
20335;DHT22;10325;51.468;5.804;2023-02-01T18:32:05;17.70;54.00
20335;DHT22;10325;51.468;5.804;2023-02-01T18:34:35;17.80;54.50
20335;DHT22;10325;51.468;5.804;2023-02-01T18:37:04;17.80;54.40
20335;DHT22;10325;51.468;5.804;2023-02-01T18:39:37;17.80;54.10
20335;DHT22;10325;51.468;5.804;2023-02-01T18:42:10;17.80;54.20
20335;DHT22;10325;51.468;5.804;2023-02-01T18:44:42;17.80;54.30
20335;DHT22;10325;51.468;5.804;2023-02-01T18:47:12;17.70;53.90